Time;durP1;ratioP1;P1;durP2;ratioP2;P2;SDS_P1;SDS_P2;PMS_P1;PMS_P2;Temp;Humidity;BMP_temperature;BMP_pressure;BME280_temperature;BME280_humidity;BME280_pressure;Samples;Min_cycle;Max_cycle;Signal;HPM_P1;HPM_P2
2021/04/02 00:01:03;;;;;;;25.60;9.73;;;;;;;5.56;82.32;93230.66;2090312;28;20103;-82
2021/04/02 00:02:09;;;;;;;24.45;9.60;;;;;;;5.54;82.23;93230.28;2091945;28;20024;-82
2021/04/02 00:03:09;;;;;;;26.15;9.90;;;;;;;5.50;82.78;93224.22;2107857;28;20024;-82
2021/04/02 00:04:10;;;;;;;25.77;9.27;;;;;;;5.46;83.03;93224.22;2106724;28;20050;-81
2021/04/02 00:05:18;;;;;;;25.40;9.52;;;;;;;5.43;83.08;93224.22;2105907;28;20063;-82
2021/04/02 00:06:19;;;;;;;24.08;9.77;;;;;;;5.41;82.82;93221.97;2107318;28;20081;-82
2021/04/02 00:07:19;;;;;;;24.00;9.27;;;;;;;5.40;82.88;93224.97;2098513;28;20016;-81
2021/04/02 00:08:20;;;;;;;27.13;9.60;;;;;;;5.41;82.27;93231.81;2106865;28;20024;-82
2021/04/02 00:09:20;;;;;;;21.80;9.32;;;;;;;5.47;82.14;93227.63;2106746;28;20031;-81
2021/04/02 00:10:23;;;;;;;20.05;8.85;;;;;;;5.42;81.54;93220.81;2098570;28;20408;-82
2021/04/02 00:11:24;;;;;;;20.65;9.25;;;;;;;5.45;81.45;93230.69;2107161;28;20050;-81
2021/04/02 00:12:24;;;;;;;19.58;9.02;;;;;;;5.38;82.07;93214.75;2098393;28;20024;-82
2021/04/02 00:13:30;;;;;;;27.83;9.85;;;;;;;5.35;82.23;93225.38;2090155;28;20052;-82
2021/04/02 00:14:31;;;;;;;26.52;10.05;;;;;;;5.42;82.48;93226.13;2099793;28;20035;-82
2021/04/02 00:15:31;;;;;;;24.98;10.02;;;;;;;5.40;82.71;93228.41;2098503;28;20024;-82
2021/04/02 00:16:32;;;;;;;20.70;9.27;;;;;;;5.35;82.60;93222.72;2090187;28;20048;-81
2021/04/02 00:17:32;;;;;;;25.48;9.93;;;;;;;5.36;82.72;93225.00;2090259;28;20493;-82
2021/04/02 00:18:33;;;;;;;22.67;9.60;;;;;;;5.34;82.62;93229.91;2098460;28;20020;-83
2021/04/02 00:19:33;;;;;;;21.98;10.60;;;;;;;5.35;82.89;93223.47;2115127;28;20023;-81
2021/04/02 00:20:34;;;;;;;22.00;10.05;;;;;;;5.43;82.19;93230.28;2106874;28;20461;-81
2021/04/02 00:21:35;;;;;;;21.80;9.98;;;;;;;5.37;81.89;93226.50;2090424;28;20028;-82
2021/04/02 00:22:35;;;;;;;21.90;10.85;;;;;;;5.21;82.66;93229.53;2090262;28;20067;-83
2021/04/02 00:23:38;;;;;;;26.35;9.95;;;;;;;5.26;82.82;93221.19;2098472;28;20107;-82
2021/04/02 00:24:38;;;;;;;26.17;10.63;;;;;;;5.18;83.85;93232.19;2098419;28;20020;-82
2021/04/02 00:25:39;;;;;;;27.90;9.80;;;;;;;5.17;84.31;93228.78;2089946;28;20032;-81
2021/04/02 00:26:40;;;;;;;26.90;9.88;;;;;;;5.24;83.64;93238.63;2101499;28;20022;-81
2021/04/02 00:27:40;;;;;;;21.40;9.95;;;;;;;5.21;83.73;93226.13;2105398;28;20083;-81
2021/04/02 00:28:41;;;;;;;27.35;10.60;;;;;;;5.15;83.54;93228.41;2105886;28;20027;-81
2021/04/02 00:29:42;;;;;;;26.30;10.05;;;;;;;5.13;83.65;93228.00;2088908;28;20027;-81
2021/04/02 00:30:42;;;;;;;25.17;10.60;;;;;;;5.09;84.14;93232.53;2097576;28;20079;-82
2021/04/02 00:31:43;;;;;;;26.83;10.85;;;;;;;5.19;83.90;93229.16;2097627;28;20493;-81
2021/04/02 00:32:43;;;;;;;23.13;10.45;;;;;;;5.06;84.15;93230.66;2090189;28;20053;-81
2021/04/02 00:33:43;;;;;;;32.38;10.57;;;;;;;5.03;84.65;93232.16;2106494;28;20487;-81
2021/04/02 00:34:44;;;;;;;25.65;10.20;;;;;;;5.06;84.72;93228.03;2114837;28;20280;-81
2021/04/02 00:35:45;;;;;;;25.70;10.35;;;;;;;5.07;84.77;93229.53;2106942;28;20032;-82
2021/04/02 00:36:45;;;;;;;20.33;9.30;;;;;;;5.03;84.30;93229.53;2102199;28;20404;-82
2021/04/02 00:37:45;;;;;;;23.90;9.77;;;;;;;5.04;83.96;93238.22;2089882;28;20418;-83
2021/04/02 00:38:46;;;;;;;28.05;10.65;;;;;;;5.00;85.08;93232.94;2098291;28;20509;-82
2021/04/02 00:39:47;;;;;;;30.27;10.75;;;;;;;5.04;84.55;93231.03;2110555;28;20081;-82
2021/04/02 00:40:52;;;;;;;22.60;9.77;;;;;;;5.06;84.33;93228.03;2106724;28;20058;-81
2021/04/02 00:41:53;;;;;;;27.55;10.23;;;;;;;5.02;84.46;93235.97;2098727;28;20158;-82
2021/04/02 00:42:54;;;;;;;24.83;10.68;;;;;;;5.01;84.09;93215.91;2098360;28;20073;-81
2021/04/02 00:43:54;;;;;;;23.80;10.07;;;;;;;5.07;84.31;93223.47;2090102;28;20074;-81
2021/04/02 00:44:56;;;;;;;25.35;9.77;;;;;;;4.97;83.43;93233.69;2089940;28;20051;-82
2021/04/02 00:45:56;;;;;;;23.48;9.18;;;;;;;4.93;84.17;93224.97;2090330;28;20021;-82
2021/04/02 00:46:57;;;;;;;25.85;10.55;;;;;;;4.91;84.79;93224.59;2090111;28;20103;-81
2021/04/02 00:47:58;;;;;;;26.77;10.55;;;;;;;4.91;85.09;93227.22;2089740;28;20481;-80
2021/04/02 00:48:58;;;;;;;27.50;10.68;;;;;;;4.88;85.76;93227.25;2106445;28;20412;-81
2021/04/02 00:49:59;;;;;;;28.33;11.20;;;;;;;4.84;85.91;93218.53;2106336;28;20024;-82
2021/04/02 00:51:09;;;;;;;20.17;10.10;;;;;;;4.85;nan;93225.34;2098314;28;20458;-82
2021/04/02 00:52:10;;;;;;;20.48;10.35;;;;;;;4.85;85.77;93218.16;2092680;28;20430;-82
2021/04/02 00:53:11;;;;;;;21.63;9.70;;;;;;;4.85;85.77;93222.69;2089960;28;20111;-81
2021/04/02 00:54:11;;;;;;;35.15;10.15;;;;;;;4.94;85.46;93212.50;2081588;28;20029;-83
2021/04/02 00:55:12;;;;;;;25.25;10.60;;;;;;;4.88;86.30;93217.41;2081221;28;20022;-81
2021/04/02 00:56:14;;;;;;;27.90;9.82;;;;;;;4.90;86.40;93220.44;2090030;28;20515;-81
2021/04/02 00:57:15;;;;;;;34.20;11.07;;;;;;;4.88;86.55;93221.94;2081903;28;20071;-82
2021/04/02 00:58:18;;;;;;;27.08;10.90;;;;;;;4.89;86.57;93218.16;2097461;28;20021;-81
2021/04/02 00:59:19;;;;;;;28.73;10.15;;;;;;;4.93;86.36;93216.28;2098598;28;20035;-82
2021/04/02 01:00:19;;;;;;;25.67;10.20;;;;;;;4.89;84.67;93218.91;2106148;28;20028;-80
2021/04/02 01:01:20;;;;;;;29.17;10.50;;;;;;;4.89;85.84;93220.81;2089640;28;20025;-81
2021/04/02 01:02:21;;;;;;;22.73;9.75;;;;;;;4.94;85.41;93212.50;2093871;28;20017;-81
2021/04/02 01:03:22;;;;;;;27.20;10.95;;;;;;;4.91;85.49;93224.59;2098035;28;20024;-81
2021/04/02 01:04:23;;;;;;;25.45;10.45;;;;;;;4.93;85.23;93217.03;2097695;28;20029;-81
2021/04/02 01:05:28;;;;;;;22.13;10.63;;;;;;;4.83;85.65;93212.50;2089643;28;20127;-82
2021/04/02 01:06:28;;;;;;;26.05;11.07;;;;;;;4.84;85.90;93208.69;2084146;28;20096;-81
2021/04/02 01:07:29;;;;;;;30.80;12.25;;;;;;;4.97;86.11;93217.03;2106471;28;20493;-81
2021/04/02 01:08:32;;;;;;;29.63;13.38;;;;;;;5.01;87.05;93215.91;2112278;28;20092;-82
2021/04/02 01:09:33;;;;;;;30.17;13.55;;;;;;;4.95;87.44;93212.09;2098072;28;20043;-81
2021/04/02 01:10:33;;;;;;;32.78;13.20;;;;;;;4.94;87.68;93212.50;2097850;28;20020;-82
2021/04/02 01:11:34;;;;;;;33.20;13.85;;;;;;;4.95;87.60;93224.59;2098171;28;20024;-81
2021/04/02 01:12:34;;;;;;;30.95;13.82;;;;;;;4.93;87.01;93213.63;2097970;28;20105;-81
2021/04/02 01:13:42;;;;;;;30.25;13.70;;;;;;;5.01;85.84;93215.91;2097916;28;20047;-81
2021/04/02 01:14:43;;;;;;;31.58;14.55;;;;;;;5.02;86.40;93219.31;2107048;28;20028;-82
2021/04/02 01:15:48;;;;;;;31.65;13.88;;;;;;;4.95;86.95;93216.66;2097920;28;20408;-81
2021/04/02 01:16:49;;;;;;;37.78;15.05;;;;;;;4.90;86.47;93209.06;2086929;28;20020;-81
2021/04/02 01:17:52;;;;;;;33.53;14.65;;;;;;;4.95;86.43;93212.09;2089611;28;20017;-81
2021/04/02 01:19:12;;;;;;;33.38;13.85;;;;;;;4.90;85.39;93214.38;2098647;28;20024;-81
2021/04/02 01:20:13;;;;;;;34.45;13.38;;;;;;;4.85;85.98;93209.47;2108691;28;20020;-82
2021/04/02 01:21:25;;;;;;;32.47;14.32;;;;;;;4.86;85.60;93214.38;2098073;28;20082;-82
2021/04/02 01:22:29;;;;;;;34.08;15.48;;;;;;;4.87;86.29;93215.13;2084496;28;20067;-81
2021/04/02 01:23:34;;;;;;;35.17;16.02;;;;;;;4.88;86.21;93217.41;2090064;28;20024;-81
2021/04/02 01:25:11;;;;;;;42.65;17.52;;;;;;;4.89;85.71;93218.91;2092938;28;20029;-81
2021/04/02 01:26:16;;;;;;;37.03;17.90;;;;;;;4.95;87.04;93216.66;2068874;28;20037;-82
2021/04/02 01:28:05;;;;;;;36.30;16.83;;;;;;;4.93;86.25;93213.63;2082160;28;20510;-82
2021/04/02 01:29:15;;;;;;;42.03;16.70;;;;;;;4.91;86.35;93210.59;2079192;28;20087;-81
2021/04/02 01:30:16;;;;;;;39.30;17.83;;;;;;;4.99;86.51;93218.16;2082121;28;20371;-81
2021/04/02 01:31:17;;;;;;;45.85;20.45;;;;;;;5.05;87.55;93216.66;2089232;28;20033;-82
2021/04/02 01:32:25;;;;;;;47.72;19.85;;;;;;;5.03;87.27;93221.56;2089182;28;20024;-82
2021/04/02 01:33:27;;;;;;;56.85;23.90;;;;;;;5.21;88.69;93202.28;2081905;28;20517;-82
2021/04/02 01:34:35;;;;;;;55.63;23.90;;;;;;;5.27;88.18;93203.44;2086997;28;20043;-81
2021/04/02 01:35:38;;;;;;;47.80;22.00;;;;;;;5.22;87.13;93212.53;2099780;28;20039;-81
2021/04/02 01:36:43;;;;;;;55.10;24.92;;;;;;;5.21;88.10;93212.88;2097834;28;20032;-81
2021/04/02 01:37:51;;;;;;;57.45;25.20;;;;;;;5.25;88.22;93211.00;2105908;28;20012;-81
2021/04/02 01:38:53;;;;;;;56.35;24.33;;;;;;;5.28;87.76;93208.34;2106136;28;20020;-81
2021/04/02 01:39:57;;;;;;;48.45;24.42;;;;;;;5.28;87.29;93210.25;2097751;28;20462;-81
2021/04/02 01:41:02;;;;;;;55.15;24.70;;;;;;;5.24;87.05;93210.22;2087515;28;20114;-81
2021/04/02 01:42:05;;;;;;;53.53;25.40;;;;;;;5.26;87.45;93210.59;2090502;28;20020;-81
2021/04/02 01:43:11;;;;;;;48.97;23.77;;;;;;;5.28;86.57;93208.34;2089962;28;20498;-82
2021/04/02 01:44:12;;;;;;;54.63;24.67;;;;;;;5.28;86.83;93207.59;2098774;28;20025;-81
2021/04/02 01:45:16;;;;;;;51.17;23.90;;;;;;;5.25;86.74;93213.63;2105826;28;20400;-82
2021/04/02 01:46:18;;;;;;;52.78;24.48;;;;;;;5.25;86.31;93209.09;2106271;28;20115;-81
2021/04/02 01:47:19;;;;;;;50.50;23.60;;;;;;;5.19;86.67;93209.88;2089913;28;20066;-81
2021/04/02 01:48:21;;;;;;;55.13;24.25;;;;;;;5.14;86.84;93202.28;2106311;28;20106;-81
2021/04/02 01:49:24;;;;;;;53.95;25.02;;;;;;;5.18;87.28;93208.31;2097882;28;20020;-81
2021/04/02 01:50:25;;;;;;;54.20;24.90;;;;;;;5.20;87.20;93212.13;2089836;28;20079;-81
2021/04/02 01:51:26;;;;;;;60.03;26.17;;;;;;;5.30;88.06;93205.31;2089173;28;20029;-81
2021/04/02 01:52:28;;;;;;;51.53;25.17;;;;;;;5.29;88.15;93207.19;2097804;28;20040;-82
2021/04/02 01:53:36;;;;;;;65.50;29.00;;;;;;;5.51;89.29;93201.88;2097890;28;20070;-82
2021/04/02 01:54:37;;;;;;;52.60;25.75;;;;;;;5.48;87.34;93202.63;2099150;28;20017;-81
2021/04/02 01:55:39;;;;;;;58.60;26.38;;;;;;;5.53;87.68;93208.34;2105211;28;20028;-81
2021/04/02 01:56:40;;;;;;;59.45;25.30;;;;;;;5.43;87.93;93205.69;2084153;28;20033;-82
2021/04/02 01:57:42;;;;;;;59.28;27.63;;;;;;;5.47;88.26;93209.84;2106221;28;20016;-81
2021/04/02 01:58:44;;;;;;;62.03;26.02;;;;;;;5.41;87.20;93216.66;2105889;28;20106;-82
2021/04/02 01:59:46;;;;;;;52.13;24.50;;;;;;;5.43;86.55;93201.13;2105917;28;20089;-82
2021/04/02 02:00:55;;;;;;;47.28;23.58;;;;;;;5.38;86.34;93200.75;2097186;28;20119;-81
2021/04/02 02:01:58;;;;;;;61.90;25.50;;;;;;;5.30;85.95;93203.41;2088260;28;20032;-81
2021/04/02 02:04:19;;;;;;;;;;;;;;;5.20;86.24;93201.53;2148546;27;20116;-83
2021/04/02 02:05:20;;;;;;;53.75;23.35;;;;;;;5.13;86.89;93201.50;2139282;27;19910;-83
2021/04/02 02:06:23;;;;;;;62.90;24.63;;;;;;;5.13;86.62;93200.75;2128110;27;20080;-83
2021/04/02 02:07:24;;;;;;;53.78;25.33;;;;;;;5.14;85.22;93194.34;2117891;27;20023;-83
2021/04/02 02:08:26;;;;;;;51.58;25.73;;;;;;;5.01;85.91;93191.31;2120658;28;20050;-83
2021/04/02 02:09:30;;;;;;;50.65;25.95;;;;;;;5.00;86.92;93201.16;2114040;28;20023;-83
2021/04/02 02:10:31;;;;;;;56.78;24.65;;;;;;;4.95;87.33;93204.16;2112922;28;20087;-84
2021/04/02 02:11:33;;;;;;;52.35;25.83;;;;;;;4.92;86.84;93204.19;2114769;27;20663;-83
2021/04/02 02:12:37;;;;;;;51.00;24.73;;;;;;;4.90;87.22;93195.84;2115397;27;20030;-83
2021/04/02 02:13:44;;;;;;;48.15;24.20;;;;;;;4.89;87.18;93200.38;2130969;27;20048;-83
2021/04/02 02:14:49;;;;;;;55.60;23.85;;;;;;;4.97;86.49;93201.91;2125706;27;20443;-82
2021/04/02 02:15:53;;;;;;;55.90;26.73;;;;;;;4.92;87.11;93196.97;2121417;27;20090;-82
2021/04/02 02:16:56;;;;;;;56.20;25.17;;;;;;;4.92;87.82;93198.88;2125595;27;20106;-83
2021/04/02 02:18:03;;;;;;;53.03;25.85;;;;;;;4.89;87.29;93192.44;2116309;28;20042;-83
2021/04/02 02:19:11;;;;;;;55.40;26.75;;;;;;;4.88;88.00;93192.81;2106846;28;20023;-83
2021/04/02 02:20:12;;;;;;;59.08;28.20;;;;;;;4.86;88.37;93193.19;2109532;28;20043;-84
2021/04/02 02:21:14;;;;;;;53.65;26.60;;;;;;;4.87;88.72;93194.69;2116035;27;20031;-84
2021/04/02 02:22:18;;;;;;;60.30;27.23;;;;;;;4.87;88.50;93189.38;2120450;28;20023;-83
2021/04/02 02:23:18;;;;;;;57.63;26.55;;;;;;;4.82;87.72;93195.06;2116978;27;20015;-83
2021/04/02 02:24:19;;;;;;;57.00;27.08;;;;;;;4.76;88.60;93199.22;2124364;27;20030;-83
2021/04/02 02:25:21;;;;;;;56.63;27.60;;;;;;;4.77;88.84;93203.38;2120213;27;20022;-81
2021/04/02 02:26:22;;;;;;;62.05;28.27;;;;;;;4.66;89.53;93203.38;2104243;28;20118;-84
2021/04/02 02:27:23;;;;;;;62.95;28.20;;;;;;;4.64;89.94;93196.94;2112532;28;20039;-83
2021/04/02 02:28:24;;;;;;;65.53;29.38;;;;;;;4.60;89.57;93194.28;2116434;27;20048;-82
2021/04/02 02:29:25;;;;;;;60.42;29.48;;;;;;;4.64;90.08;93195.03;2107669;27;20027;-82
2021/04/02 02:30:31;;;;;;;65.72;29.85;;;;;;;4.60;90.68;93190.88;2107618;27;20024;-82
2021/04/02 02:31:31;;;;;;;57.95;28.40;;;;;;;4.60;89.90;93190.88;2119819;27;20027;-83
2021/04/02 02:32:33;;;;;;;61.22;27.65;;;;;;;4.55;90.03;93195.41;2110864;28;20051;-83
2021/04/02 02:33:33;;;;;;;60.70;29.35;;;;;;;4.47;90.23;93188.56;2111982;28;20032;-83
2021/04/02 02:34:34;;;;;;;63.13;29.55;;;;;;;4.46;91.01;93191.59;2118428;28;20019;-82
2021/04/02 02:35:35;;;;;;;69.93;31.55;;;;;;;4.49;90.47;93186.31;2125262;27;20129;-82
2021/04/02 02:36:36;;;;;;;61.95;29.58;;;;;;;4.46;90.84;93187.06;2116584;28;20417;-82
2021/04/02 02:37:40;;;;;;;69.75;31.25;;;;;;;4.40;90.44;93183.28;2118437;28;20026;-82
2021/04/02 02:38:41;;;;;;;69.15;31.77;;;;;;;4.42;91.02;93185.53;2104955;28;20029;-83
2021/04/02 02:39:42;;;;;;;67.80;31.70;;;;;;;4.37;91.41;93181.38;2115369;28;20030;-82
2021/04/02 02:40:42;;;;;;;71.80;30.52;;;;;;;4.38;89.51;93182.13;2124152;27;20027;-82
2021/04/02 02:41:44;;;;;;;62.38;30.52;;;;;;;4.38;89.98;93177.59;2119105;28;20031;-82
2021/04/02 02:42:45;;;;;;;66.75;30.60;;;;;;;4.34;89.60;93184.00;2111383;28;20027;-82
2021/04/02 02:43:48;;;;;;;60.45;30.10;;;;;;;4.35;89.56;93181.00;2115500;28;20346;-83
2021/04/02 02:44:49;;;;;;;60.42;29.08;;;;;;;4.34;89.97;93179.47;2120224;27;20027;-83
2021/04/02 02:45:49;;;;;;;61.63;31.35;;;;;;;4.32;89.82;93187.03;2120111;28;20023;-82
2021/04/02 02:46:50;;;;;;;61.65;30.50;;;;;;;4.31;89.88;93179.47;2116197;28;20031;-82
2021/04/02 02:47:51;;;;;;;60.90;29.67;;;;;;;4.38;89.11;93179.47;2115898;28;20488;-82
2021/04/02 02:48:54;;;;;;;62.92;29.95;;;;;;;4.45;88.65;93184.81;2115517;28;20019;-81
2021/04/02 02:49:57;;;;;;;71.28;31.38;;;;;;;4.39;89.31;93191.56;2124561;27;20023;-83
2021/04/02 02:50:59;;;;;;;62.45;29.60;;;;;;;4.32;90.16;93186.28;2120726;28;20019;-83
2021/04/02 02:52:00;;;;;;;70.20;31.70;;;;;;;4.31;90.53;93185.53;2121444;27;20023;-84
2021/04/02 02:53:02;;;;;;;62.97;30.20;;;;;;;4.27;90.35;93184.75;2121187;27;20023;-82
2021/04/02 02:54:06;;;;;;;68.38;30.92;;;;;;;4.22;90.33;93191.16;2112419;27;20528;-82
2021/04/02 02:55:09;;;;;;;73.00;33.15;;;;;;;4.20;90.17;93182.81;2105641;28;20017;-83
2021/04/02 02:56:10;;;;;;;63.20;32.03;;;;;;;4.22;89.85;93182.47;2101726;28;20024;-82
2021/04/02 02:57:12;;;;;;;64.97;29.83;;;;;;;4.22;90.25;93185.13;2104225;28;20074;-83
2021/04/02 02:58:15;;;;;;;69.38;30.63;;;;;;;4.16;89.93;93184.69;2104712;28;20035;-83
2021/04/02 02:59:19;;;;;;;59.58;30.02;;;;;;;4.26;88.61;93181.34;2104256;28;20031;-82
2021/04/02 03:00:25;;;;;;;68.82;31.13;;;;;;;4.20;89.40;93182.06;2096745;28;20048;-82
2021/04/02 03:01:26;;;;;;;71.38;30.08;;;;;;;4.18;89.99;93192.28;2122125;27;20044;-82
2021/04/02 03:02:28;;;;;;;62.67;30.13;;;;;;;4.16;89.54;93189.25;2120244;28;20053;-82
2021/04/02 03:03:29;;;;;;;61.88;30.92;;;;;;;4.12;89.75;93194.50;2112477;28;20020;-83
2021/04/02 03:04:30;;;;;;;62.72;30.20;;;;;;;4.06;89.84;93185.44;2104222;28;20063;-83
2021/04/02 03:05:31;;;;;;;65.20;31.00;;;;;;;4.06;89.97;93189.97;2095826;28;20121;-83
2021/04/02 03:06:38;;;;;;;66.75;32.60;;;;;;;4.05;89.93;93186.56;2103954;28;20400;-82
2021/04/02 03:07:41;;;;;;;61.95;31.23;;;;;;;4.03;90.33;93192.22;2094454;28;20024;-82
2021/04/02 03:08:46;;;;;;;61.40;30.08;;;;;;;3.98;90.67;93187.28;2110102;28;20032;-83
2021/04/02 03:09:49;;;;;;;69.28;31.45;;;;;;;3.98;90.52;93182.00;2116116;28;20034;-82
2021/04/02 03:10:51;;;;;;;63.05;29.10;;;;;;;3.99;90.34;93193.31;2109054;28;20401;-82
2021/04/02 03:11:52;;;;;;;55.53;29.35;;;;;;;3.96;90.62;93188.81;2117018;27;20027;-83
2021/04/02 03:12:54;;;;;;;68.25;31.42;;;;;;;3.96;90.07;93181.63;2116442;28;20031;-81
2021/04/02 03:13:56;;;;;;;59.70;30.63;;;;;;;3.89;90.25;93192.16;2100825;28;20016;-82
2021/04/02 03:14:58;;;;;;;68.07;31.27;;;;;;;3.90;90.17;93188.38;2111175;28;20020;-82
2021/04/02 03:15:59;;;;;;;68.68;32.35;;;;;;;3.98;90.60;93182.00;2101647;28;20028;-81
2021/04/02 03:17:02;;;;;;;72.05;33.25;;;;;;;3.93;91.48;93181.59;2111124;28;20050;-82
2021/04/02 03:18:06;;;;;;;67.10;32.38;;;;;;;3.97;91.33;93179.72;2104877;28;20052;-82
2021/04/02 03:19:07;;;;;;;67.32;32.92;;;;;;;4.00;91.14;93177.09;2101171;28;20031;-82
2021/04/02 03:20:10;;;;;;;69.50;33.15;;;;;;;3.91;90.88;93181.97;2113914;28;20042;-81
2021/04/02 03:21:11;;;;;;;66.57;32.22;;;;;;;3.93;90.84;93182.34;2106820;28;20115;-81
2021/04/02 03:22:12;;;;;;;69.95;35.33;;;;;;;3.85;90.62;93185.34;2114198;28;20027;-81
2021/04/02 03:23:15;;;;;;;65.03;33.15;;;;;;;3.84;90.63;93186.47;2116422;27;20469;-82
2021/04/02 03:24:16;;;;;;;68.68;32.55;;;;;;;3.82;90.66;93194.78;2106434;28;20027;-83
2021/04/02 03:25:19;;;;;;;73.15;34.78;;;;;;;3.85;90.55;93180.81;2107435;28;20028;-83
2021/04/02 03:26:21;;;;;;;69.93;34.65;;;;;;;3.85;90.99;93180.06;2106827;28;20020;-81
2021/04/02 03:27:22;;;;;;;72.32;32.80;;;;;;;3.87;91.31;93183.09;2099226;28;20048;-81
2021/04/02 03:28:23;;;;;;;66.70;33.25;;;;;;;3.88;90.59;93176.66;2106760;28;20031;-83
2021/04/02 03:29:24;;;;;;;76.47;36.55;;;;;;;3.94;90.89;93170.63;2094370;28;20029;-82
2021/04/02 03:30:26;;;;;;;74.70;33.35;;;;;;;3.87;91.03;93181.22;2090943;28;20382;-82
2021/04/02 03:31:28;;;;;;;72.93;36.42;;;;;;;3.78;91.88;93180.78;2114460;28;20030;-82
2021/04/02 03:32:30;;;;;;;66.18;35.28;;;;;;;3.76;91.81;93183.78;2116505;27;20487;-82
2021/04/02 03:33:33;;;;;;;81.18;36.50;;;;;;;3.72;92.22;93180.38;2109728;28;20040;-82
2021/04/02 03:34:35;;;;;;;77.25;34.42;;;;;;;3.76;91.93;93177.75;2100695;28;20024;-82
2021/04/02 03:35:36;;;;;;;61.70;32.63;;;;;;;3.71;91.82;93175.47;2096778;28;20115;-82
2021/04/02 03:36:39;;;;;;;67.18;32.40;;;;;;;3.70;90.89;93176.59;2092358;28;20025;-81
2021/04/02 03:37:41;;;;;;;69.43;32.90;;;;;;;3.75;90.45;93181.53;2103214;27;20033;-82
2021/04/02 03:38:45;;;;;;;70.07;36.05;;;;;;;3.69;90.57;93170.56;2106256;28;20073;-81
2021/04/02 03:39:47;;;;;;;75.47;36.10;;;;;;;3.68;91.09;93176.19;2102223;28;20032;-82
2021/04/02 03:40:51;;;;;;;77.10;35.05;;;;;;;3.69;91.53;93172.44;2110002;28;20073;-82
2021/04/02 03:41:54;;;;;;;65.68;34.38;;;;;;;3.66;91.14;93173.16;2101342;28;20036;-82
2021/04/02 03:42:58;;;;;;;79.60;37.42;;;;;;;3.64;92.19;93180.69;2102942;27;20024;-82
2021/04/02 03:44:00;;;;;;;80.38;36.97;;;;;;;3.60;92.83;93178.06;2101831;28;20416;-81
2021/04/02 03:45:02;;;;;;;80.80;36.08;;;;;;;3.56;92.78;93179.13;2108569;28;20043;-82
2021/04/02 03:46:04;;;;;;;76.75;37.28;;;;;;;3.59;93.40;93178.41;2110159;28;20516;-82
2021/04/02 03:47:10;;;;;;;85.07;38.25;;;;;;;3.54;94.73;93177.63;2093650;28;20036;-82
2021/04/02 03:48:13;;;;;;;80.10;37.42;;;;;;;3.62;94.46;93173.16;2093932;28;20143;-83
2021/04/02 03:49:18;;;;;;;78.45;36.35;;;;;;;3.58;93.62;93177.66;2092688;28;20473;-82
2021/04/02 03:50:21;;;;;;;81.75;36.53;;;;;;;3.60;92.97;93180.69;2110092;28;20032;-82
2021/04/02 03:51:24;;;;;;;85.05;38.03;;;;;;;3.61;92.60;93176.16;2114075;27;20027;-81
2021/04/02 03:52:32;;;;;;;85.10;37.25;;;;;;;3.61;92.83;93179.56;2109921;28;20024;-81
2021/04/02 03:53:40;;;;;;;80.60;36.22;;;;;;;3.56;92.28;93171.22;2110444;28;20024;-82
2021/04/02 03:54:42;;;;;;;69.15;35.67;;;;;;;3.58;91.78;93180.28;2102020;28;20028;-82
2021/04/02 03:55:46;;;;;;;82.72;37.92;;;;;;;3.55;92.16;93181.03;2093487;28;20024;-82
2021/04/02 03:56:52;;;;;;;71.85;35.40;;;;;;;3.50;92.19;93179.50;2101741;28;20052;-81
2021/04/02 03:57:52;;;;;;;80.38;36.67;;;;;;;3.57;92.21;93184.06;2098200;28;20028;-82
2021/04/02 03:58:55;;;;;;;70.35;36.15;;;;;;;3.59;91.59;93183.69;2093139;28;20032;-82
2021/04/02 03:59:58;;;;;;;70.00;37.63;;;;;;;3.53;92.17;93184.03;2093203;28;20020;-82
2021/04/02 04:01:23;;;;;;;75.13;35.55;;;;;;;3.52;91.91;93179.91;2102869;28;20016;-83
2021/04/02 04:02:24;;;;;;;73.35;35.55;;;;;;;3.48;91.65;93178.34;2104764;27;20077;-82
2021/04/02 04:03:25;;;;;;;80.97;37.95;;;;;;;3.41;92.76;93179.06;2105592;28;20039;-82
2021/04/02 04:04:27;;;;;;;78.35;37.33;;;;;;;3.46;93.41;93172.66;2096407;28;20071;-82
2021/04/02 04:05:28;;;;;;;80.65;39.08;;;;;;;3.35;93.36;93175.25;2101281;28;20034;-82
2021/04/02 04:06:31;;;;;;;75.38;37.45;;;;;;;3.39;93.13;93183.97;2101226;28;20043;-82
2021/04/02 04:07:32;;;;;;;74.82;37.60;;;;;;;3.43;94.05;93171.53;2099115;28;20028;-82
2021/04/02 04:08:34;;;;;;;80.78;38.13;;;;;;;3.40;93.45;93177.56;2103346;28;20031;-82
2021/04/02 04:09:39;;;;;;;78.28;37.28;;;;;;;3.41;92.77;93178.31;2109862;27;20386;-82
2021/04/02 04:10:40;;;;;;;78.20;37.30;;;;;;;3.43;93.89;93171.53;2118252;27;20389;-82
2021/04/02 04:11:42;;;;;;;85.20;37.65;;;;;;;3.39;93.36;93170.75;2109026;28;20085;-82
2021/04/02 04:12:44;;;;;;;82.50;38.42;;;;;;;3.42;94.24;93171.88;2109994;27;20027;-82
2021/04/02 04:13:47;;;;;;;86.68;38.97;;;;;;;3.44;94.68;93175.69;2109798;28;20164;-81
2021/04/02 04:15:16;;;;;;;89.55;39.22;;;;;;;3.46;93.89;93172.66;2090475;28;20087;-82
2021/04/02 04:18:17;;;;;;;69.05;33.78;;;;;;;3.45;91.85;93179.09;2118899;27;20498;-82
2021/04/02 04:19:21;;;;;;;69.70;35.85;;;;;;;3.45;92.50;93174.56;2105883;28;20121;-82
2021/04/02 04:20:22;;;;;;;80.95;36.33;;;;;;;3.40;92.81;93171.50;2102099;28;20114;-81
2021/04/02 04:21:27;;;;;;;78.75;37.60;;;;;;;3.38;93.29;93179.81;2097020;28;20158;-81
2021/04/02 04:22:28;;;;;;;68.47;34.92;;;;;;;3.37;93.51;93180.16;2110257;27;20129;-82
2021/04/02 04:23:30;;;;;;;79.57;37.22;;;;;;;3.33;94.76;93180.13;2101046;28;20112;-82
2021/04/02 04:24:31;;;;;;;79.18;38.95;;;;;;;3.34;94.88;93178.28;2109743;28;20023;-81
2021/04/02 04:25:33;;;;;;;78.68;37.42;;;;;;;3.37;94.41;93177.53;2108335;28;20042;-82
2021/04/02 04:26:35;;;;;;;81.85;38.97;;;;;;;3.29;93.96;93171.44;2097265;28;20040;-81
2021/04/02 04:27:39;;;;;;;72.68;36.47;;;;;;;3.27;93.20;93174.44;2104726;28;20460;-82
2021/04/02 04:28:41;;;;;;;76.47;37.22;;;;;;;3.30;93.80;93177.50;2103007;28;20063;-81
2021/04/02 04:29:45;;;;;;;74.82;35.88;;;;;;;3.31;93.09;93176.38;2092772;28;20444;-81
2021/04/02 04:30:51;;;;;;;73.88;35.33;;;;;;;3.23;92.47;93173.66;2093718;28;20043;-82
2021/04/02 04:31:52;;;;;;;80.50;38.55;;;;;;;3.23;93.82;93171.03;2103071;28;20073;-80
2021/04/02 04:32:56;;;;;;;75.05;35.90;;;;;;;3.22;93.98;93174.78;2110087;28;20469;-80
2021/04/02 04:34:00;;;;;;;81.35;36.88;;;;;;;3.19;93.43;93172.13;2106704;28;20093;-81
2021/04/02 04:35:01;;;;;;;73.97;36.10;;;;;;;3.18;93.61;93167.97;2105828;28;20052;-81
2021/04/02 04:36:05;;;;;;;78.20;36.53;;;;;;;3.18;92.29;93167.97;2094001;28;20753;-81
2021/04/02 04:37:07;;;;;;;75.93;35.95;;;;;;;3.16;93.70;93175.50;2106465;28;20473;-82
2021/04/02 04:38:08;;;;;;;75.43;36.47;;;;;;;3.30;93.52;93177.50;2106614;28;20063;-81
2021/04/02 04:39:09;;;;;;;75.82;36.33;;;;;;;3.20;92.79;93173.63;2107534;28;20469;-82
2021/04/02 04:40:14;;;;;;;75.68;36.65;;;;;;;3.21;93.41;93164.59;2110636;28;20424;-82
2021/04/02 04:41:17;;;;;;;74.40;36.88;;;;;;;3.19;93.23;93169.47;2113594;28;20059;-82
2021/04/02 04:42:19;;;;;;;82.20;37.90;;;;;;;3.15;93.78;93172.09;2100208;28;20028;-82
2021/04/02 04:43:21;;;;;;;79.90;38.72;;;;;;;3.09;94.44;93176.22;2104330;28;20127;-82
2021/04/02 04:44:23;;;;;;;76.05;36.88;;;;;;;3.08;95.14;93168.66;2100754;28;20067;-82
2021/04/02 04:45:25;;;;;;;77.35;36.25;;;;;;;3.07;94.20;93167.88;2103422;28;20119;-81
2021/04/02 04:46:26;;;;;;;76.90;37.33;;;;;;;3.01;94.30;93169.34;2093372;28;20029;-81
2021/04/02 04:47:26;;;;;;;73.10;36.20;;;;;;;3.02;94.05;93168.97;2094394;28;20021;-81
2021/04/02 04:48:28;;;;;;;67.05;35.45;;;;;;;2.99;93.40;93172.38;2093224;28;20074;-81
2021/04/02 04:49:29;;;;;;;76.93;38.55;;;;;;;2.96;93.18;93169.69;2098247;28;20029;-83
2021/04/02 04:50:29;;;;;;;80.55;38.40;;;;;;;3.05;93.65;93172.03;2094136;28;20147;-83
2021/04/02 04:51:33;;;;;;;78.60;37.28;;;;;;;3.00;94.07;93175.78;2089605;28;20032;-84
2021/04/02 04:52:38;;;;;;;75.97;37.50;;;;;;;2.97;93.08;93179.88;2102586;28;20023;-82
2021/04/02 04:53:40;;;;;;;78.55;35.58;;;;;;;2.99;93.85;93174.25;2102146;28;20020;-81
2021/04/02 04:54:45;;;;;;;80.68;37.83;;;;;;;2.97;93.75;93173.84;2111421;28;20069;-84
2021/04/02 04:55:48;;;;;;;74.88;37.90;;;;;;;3.02;93.54;93168.22;2102437;28;20025;-83
2021/04/02 04:56:51;;;;;;;83.75;38.63;;;;;;;2.98;94.77;93173.47;2091922;28;20040;-83